Time;durP1;ratioP1;P1;durP2;ratioP2;P2;SDS_P1;SDS_P2;PMS_P1;PMS_P2;Temp;Humidity;BMP_temperature;BMP_pressure;BME280_temperature;BME280_humidity;BME280_pressure;Samples;Min_cycle;Max_cycle;Signal;HPM_P1;HPM_P2
2023/04/25 00:01:42;;;;;;;;;;;;;;;14.94;58.92;98853.62;4405904;32;34168;-84
2023/04/25 00:04:11;;;;;;;;;;;;;;;15.08;58.28;98852.56;4406320;32;33409;-85
2023/04/25 00:06:39;;;;;;;;;;;;;;;14.90;59.16;98852.16;4406661;32;33106;-84
2023/04/25 00:09:08;;;;;;;;;;;;;;;15.04;58.43;98841.31;4398976;32;32898;-85
2023/04/25 00:11:37;;;;;;;;;;;;;;;14.82;59.56;98842.13;4405022;32;34149;-86
2023/04/25 00:14:06;;;;;;;;;;;;;;;14.69;60.25;98840.53;4402322;32;34269;-85
2023/04/25 00:16:36;;;;;;;;;;;;;;;14.98;58.83;98836.47;4401546;32;33085;-85
2023/04/25 00:19:04;;;;;;;;;;;;;;;15.05;58.64;98831.56;4401770;32;31079;-85
2023/04/25 00:21:33;;;;;;;;;;;;;;;15.34;57.49;98830.13;4399842;32;34025;-85
2023/04/25 00:24:01;;;;;;;;;;;;;;;15.28;58.13;98827.06;4403058;32;32812;-85
2023/04/25 00:26:29;;;;;;;;;;;;;;;15.34;57.46;98824.78;4399972;32;34147;-85
2023/04/25 00:29:01;;;;;;;;;;;;;;;14.94;59.53;98831.50;4405866;32;34207;-84
2023/04/25 00:31:29;;;;;;;;;;;;;;;14.73;59.70;98828.69;4405858;32;33515;-85
2023/04/25 00:34:03;;;;;;;;;;;;;;;14.94;58.80;98827.03;4380905;32;33621;-85
2023/04/25 00:36:30;;;;;;;;;;;;;;;15.10;58.29;98822.25;4407255;32;32163;-84
2023/04/25 00:38:58;;;;;;;;;;;;;;;15.34;57.34;98818.63;4405594;32;33864;-87
2023/04/25 00:41:26;;;;;;;;;;;;;;;14.87;59.01;98823.19;4405386;32;33348;-87
2023/04/25 00:43:54;;;;;;;;;;;;;;;14.87;59.09;98825.84;4405005;32;36049;-87
2023/04/25 00:46:22;;;;;;;;;;;;;;;14.30;61.16;98826.59;4393297;32;33121;-87
2023/04/25 00:48:50;;;;;;;;;;;;;;;14.62;60.40;98821.53;4406136;32;33505;-87
2023/04/25 00:51:21;;;;;;;;;;;;;;;14.91;59.37;98815.78;4406280;32;34371;-86
2023/04/25 00:53:49;;;;;;;;;;;;;;;14.98;59.44;98820.53;4405959;32;33482;-87
2023/04/25 00:56:19;;;;;;;;;;;;;;;14.99;59.32;98808.94;4406242;32;33395;-87
2023/04/25 00:58:48;;;;;;;;;;;;;;;15.09;59.05;98807.22;4393327;32;33320;-87
2023/04/25 01:01:17;;;;;;;;;;;;;;;14.76;60.13;98799.22;4406363;32;34141;-87
2023/04/25 01:03:45;;;;;;;;;;;;;;;14.65;60.63;98801.84;4406121;32;34205;-87
2023/04/25 01:06:12;;;;;;;;;;;;;;;14.36;61.53;98804.87;4393240;32;33147;-87
2023/04/25 01:08:39;;;;;;;;;;;;;;;14.30;61.78;98800.88;4324226;32;1895067;-88
2023/04/25 01:11:08;;;;;;;;;;;;;;;14.39;61.27;98798.50;4380144;32;33180;-87
2023/04/25 01:13:36;;;;;;;;;;;;;;;14.34;61.07;98804.16;4406312;32;34484;-88
2023/04/25 01:16:05;;;;;;;;;;;;;;;14.23;61.65;98804.09;4405578;32;32419;-87
2023/04/25 01:18:33;;;;;;;;;;;;;;;14.66;59.47;98806.19;4392903;32;32758;-87
2023/04/25 01:21:04;;;;;;;;;;;;;;;14.48;60.09;98804.00;4392340;32;33212;-88
2023/04/25 01:23:33;;;;;;;;;;;;;;;14.37;60.78;98806.56;4405439;32;34220;-87
2023/04/25 01:26:01;;;;;;;;;;;;;;;14.62;59.48;98804.75;4405703;32;33363;-87
2023/04/25 01:28:29;;;;;;;;;;;;;;;14.51;59.69;98809.06;4403886;32;32649;-89
2023/04/25 01:30:57;;;;;;;;;;;;;;;14.41;59.51;98802.72;4405587;32;32914;-89
2023/04/25 01:33:26;;;;;;;;;;;;;;;14.59;58.51;98806.69;4405591;32;33218;-89
2023/04/25 01:35:55;;;;;;;;;;;;;;;14.47;59.08;98802.25;4393061;32;33413;-89
2023/04/25 01:38:22;;;;;;;;;;;;;;;14.78;57.28;98805.28;4390154;32;32614;-88
2023/04/25 01:40:52;;;;;;;;;;;;;;;14.29;58.96;98806.28;4404858;32;35036;-89
2023/04/25 01:43:19;;;;;;;;;;;;;;;14.20;58.67;98794.56;4393392;32;33641;-88
2023/04/25 01:45:47;;;;;;;;;;;;;;;14.43;57.12;98806.13;4404628;32;33300;-88
2023/04/25 01:48:16;;;;;;;;;;;;;;;14.62;56.55;98804.75;4392804;32;33237;-89
2023/04/25 01:50:45;;;;;;;;;;;;;;;14.08;57.99;98798.97;4392953;32;33287;-88
2023/04/25 01:53:13;;;;;;;;;;;;;;;14.04;57.81;98788.69;4402610;32;33344;-89
2023/04/25 01:55:42;;;;;;;;;;;;;;;14.29;57.44;98803.63;4392908;32;32139;-86
2023/04/25 01:58:12;;;;;;;;;;;;;;;14.31;56.88;98801.72;4406648;32;34463;-86
2023/04/25 02:00:41;;;;;;;;;;;;;;;14.08;57.96;98806.94;4407524;32;33633;-87
2023/04/25 02:03:09;;;;;;;;;;;;;;;14.48;55.96;98806.66;4394870;32;33735;-86
2023/04/25 02:05:43;;;;;;;;;;;;;;;14.51;56.23;98809.06;4406446;32;32354;-86
2023/04/25 02:08:11;;;;;;;;;;;;;;;14.44;56.18;98806.97;4407292;32;34100;-86
2023/04/25 02:10:39;;;;;;;;;;;;;;;14.10;57.50;98814.78;4406636;32;34740;-86
2023/04/25 02:13:08;;;;;;;;;;;;;;;14.30;56.52;98810.66;4407390;32;35046;-85
2023/04/25 02:15:36;;;;;;;;;;;;;;;14.29;56.40;98814.25;4406929;32;32526;-86
2023/04/25 02:18:11;;;;;;;;;;;;;;;14.29;56.12;98809.81;4406279;32;34980;-86
2023/04/25 02:20:40;;;;;;;;;;;;;;;14.08;56.57;98806.94;4410219;32;33761;-86
2023/04/25 02:23:09;;;;;;;;;;;;;;;14.11;56.80;98810.34;4409639;32;34173;-86
2023/04/25 02:25:37;;;;;;;;;;;;;;;13.98;57.67;98811.22;4410371;32;33707;-86
2023/04/25 02:28:05;;;;;;;;;;;;;;;14.29;55.98;98808.94;4410152;32;33486;-85
2023/04/25 02:30:35;;;;;;;;;;;;;;;14.27;55.99;98808.22;4408265;32;34784;-85
2023/04/25 02:33:04;;;;;;;;;;;;;;;14.31;55.86;98807.03;4392726;32;32953;-85
2023/04/25 02:35:38;;;;;;;;;;;;;;;14.48;54.96;98803.13;4397323;32;31869;-86
2023/04/25 02:38:06;;;;;;;;;;;;;;;13.85;57.42;98794.50;4407863;32;34706;-86
2023/04/25 02:40:36;;;;;;;;;;;;;;;14.27;55.82;98802.91;4393525;32;33526;-86
2023/04/25 02:43:04;;;;;;;;;;;;;;;13.89;56.89;98805.75;4409527;32;33351;-88
2023/04/25 02:45:33;;;;;;;;;;;;;;;14.17;55.92;98807.22;4409697;32;33398;-87
2023/04/25 02:48:01;;;;;;;;;;;;;;;14.14;55.60;98802.97;4409218;32;33966;-88
2023/04/25 02:50:31;;;;;;;;;;;;;;;13.85;56.69;98813.06;4397556;32;32908;-88
2023/04/25 02:53:03;;;;;;;;;;;;;;;14.16;55.05;98805.53;4409244;32;33402;-87
2023/04/25 02:55:30;;;;;;;;;;;;;;;14.00;55.70;98809.28;4395536;32;32178;-87
2023/04/25 02:58:02;;;;;;;;;;;;;;;13.78;55.90;98796.75;4409601;32;33543;-87
2023/04/25 03:00:32;;;;;;;;;;;;;;;13.85;55.76;98810.41;4396016;32;32852;-88
2023/04/25 03:03:04;;;;;;;;;;;;;;;13.69;56.82;98802.72;4408293;32;32795;-87
2023/04/25 03:05:32;;;;;;;;;;;;;;;13.95;55.85;98800.81;4397182;32;33137;-88
2023/04/25 03:08:07;;;;;;;;;;;;;;;13.55;56.63;98806.38;4396831;32;32889;-88
2023/04/25 03:10:38;;;;;;;;;;;;;;;13.74;56.38;98805.91;4410024;32;34844;-88
2023/04/25 03:13:07;;;;;;;;;;;;;;;13.75;56.51;98807.59;4397056;32;33295;-86
2023/04/25 03:15:35;;;;;;;;;;;;;;;13.96;55.22;98797.22;4396624;32;31797;-85
2023/04/25 03:18:03;;;;;;;;;;;;;;;13.22;57.97;98809.63;4409715;32;33999;-85
2023/04/25 03:20:32;;;;;;;;;;;;;;;13.89;55.83;98801.28;4394190;32;33181;-85
2023/04/25 03:23:02;;;;;;;;;;;;;;;13.88;55.72;98804.91;4406540;32;34249;-86
2023/04/25 03:25:30;;;;;;;;;;;;;;;13.92;55.41;98800.22;4406498;32;34119;-85
2023/04/25 03:28:02;;;;;;;;;;;;;;;14.02;55.07;98806.53;4416130;32;34126;-85
2023/04/25 03:30:30;;;;;;;;;;;;;;;14.22;54.76;98799.75;4381309;32;33603;-85
2023/04/25 03:33:03;;;;;;;;;;;;;;;12.96;58.61;98816.72;4407171;32;34075;-85
2023/04/25 03:35:32;;;;;;;;;;;;;;;13.49;57.38;98814.78;4392517;32;33310;-86
2023/04/25 03:38:00;;;;;;;;;;;;;;;13.20;58.49;98802.72;4408051;32;34059;-86
2023/04/25 03:40:29;;;;;;;;;;;;;;;13.19;58.62;98820.41;4406563;32;34273;-86
2023/04/25 03:43:01;;;;;;;;;;;;;;;13.61;57.13;98807.75;4394264;32;32399;-86
2023/04/25 03:45:29;;;;;;;;;;;;;;;13.22;58.58;98811.44;4405270;32;32673;-85
2023/04/25 03:48:02;;;;;;;;;;;;;;;13.44;57.57;98816.06;4388336;32;33820;-86
2023/04/25 03:50:30;;;;;;;;;;;;;;;13.24;58.17;98810.34;4394525;32;33820;-87
2023/04/25 03:53:00;;;;;;;;;;;;;;;13.32;58.08;98817.78;4406410;32;33718;-87
2023/04/25 03:55:29;;;;;;;;;;;;;;;13.65;57.11;98806.56;4394012;32;31993;-88
2023/04/25 03:58:05;;;;;;;;;;;;;;;13.55;57.26;98816.16;4394132;32;33912;-87
2023/04/25 04:00:33;;;;;;;;;;;;;;;13.29;58.32;98825.94;4407819;32;34240;-88
2023/04/25 04:03:01;;;;;;;;;;;;;;;13.13;58.78;98825.28;4393976;32;34968;-87
2023/04/25 04:05:30;;;;;;;;;;;;;;;13.55;57.41;98830.25;4407058;32;32532;-87
2023/04/25 04:07:59;;;;;;;;;;;;;;;13.70;56.97;98816.84;4394288;32;32449;-87
2023/04/25 04:10:29;;;;;;;;;;;;;;;13.62;57.27;98824.50;4405597;32;33892;-87
2023/04/25 04:12:57;;;;;;;;;;;;;;;13.61;57.74;98836.91;4405830;32;34844;-86
2023/04/25 04:15:26;;;;;;;;;;;;;;;13.50;57.69;98837.69;4401508;32;32273;-87
2023/04/25 04:17:56;;;;;;;;;;;;;;;13.08;59.30;98829.09;4406021;32;32927;-87
2023/04/25 04:20:24;;;;;;;;;;;;;;;13.04;59.86;98830.25;4405991;32;33336;-86
2023/04/25 04:22:52;;;;;;;;;;;;;;;13.32;58.86;98838.97;4392679;32;34226;-86
2023/04/25 04:25:22;;;;;;;;;;;;;;;13.19;59.29;98838.94;4404535;32;32783;-86
2023/04/25 04:27:54;;;;;;;;;;;;;;;13.25;59.86;98837.72;4402649;32;31804;-86
2023/04/25 04:30:29;;;;;;;;;;;;;;;13.30;59.23;98838.25;4402647;32;33913;-86
2023/04/25 04:33:01;;;;;;;;;;;;;;;13.29;59.87;98844.50;4394854;32;34245;-87
2023/04/25 04:35:33;;;;;;;;;;;;;;;13.27;60.04;98836.66;4394893;32;32003;-88
2023/04/25 04:38:00;;;;;;;;;;;;;;;13.00;61.42;98835.87;4404176;32;34973;-88
2023/04/25 04:40:31;;;;;;;;;;;;;;;12.93;62.02;98845.22;4405567;32;33149;-88
2023/04/25 04:42:59;;;;;;;;;;;;;;;13.23;61.14;98840.47;4406293;32;34478;-88
2023/04/25 04:45:30;;;;;;;;;;;;;;;12.94;62.11;98850.41;4406235;32;33927;-87
2023/04/25 04:48:05;;;;;;;;;;;;;;;13.28;61.28;98845.44;4406262;32;34107;-89
2023/04/25 04:50:38;;;;;;;;;;;;;;;12.77;63.11;98848.03;4387550;32;32409;-88
2023/04/25 04:53:08;;;;;;;;;;;;;;;12.86;63.21;98846.56;4405764;32;33144;-89
2023/04/25 04:55:37;;;;;;;;;;;;;;;12.96;63.23;98853.81;4406304;32;32473;-88
2023/04/25 04:58:12;;;;;;;;;;;;;;;12.54;64.85;98850.47;4379048;32;33458;-89
2023/04/25 05:00:42;;;;;;;;;;;;;;;12.67;64.51;98853.13;4404172;32;33216;-86
2023/04/25 05:03:11;;;;;;;;;;;;;;;13.04;63.59;98859.41;4405822;32;34048;-84
2023/04/25 05:05:40;;;;;;;;;;;;;;;12.61;65.70;98856.19;4405625;32;33048;-84
2023/04/25 05:08:09;;;;;;;;;;;;;;;12.91;64.22;98850.59;4406322;32;33659;-84
2023/04/25 05:10:38;;;;;;;;;;;;;;;12.74;64.70;98853.56;4405440;32;32787;-84
2023/04/25 05:13:09;;;;;;;;;;;;;;;12.73;65.46;98851.88;4395814;32;32154;-86
2023/04/25 05:15:37;;;;;;;;;;;;;;;12.79;65.16;98843.50;4398074;32;33152;-85
2023/04/25 05:18:10;;;;;;;;;;;;;;;12.84;64.74;98846.69;4401546;32;33987;-85
2023/04/25 05:20:38;;;;;;;;;;;;;;;12.77;65.45;98845.41;4404327;32;33895;-86
2023/04/25 05:23:07;;;;;;;;;;;;;;;12.84;65.59;98852.00;4391628;32;35203;-86
2023/04/25 05:25:36;;;;;;;;;;;;;;;12.53;66.70;98851.41;4390212;32;32504;-89
2023/04/25 05:28:06;;;;;;;;;;;;;;;12.35;67.29;98851.78;4407677;32;32910;-87
2023/04/25 05:30:36;;;;;;;;;;;;;;;12.56;66.81;98845.91;4380085;32;32815;-86
2023/04/25 05:33:05;;;;;;;;;;;;;;;12.38;68.01;98846.28;4405626;32;35864;-86
2023/04/25 05:35:34;;;;;;;;;;;;;;;12.40;67.16;98850.53;4405194;32;33866;-84
2023/04/25 05:38:03;;;;;;;;;;;;;;;12.19;68.11;98858.06;4406852;32;34072;-84
2023/04/25 05:40:34;;;;;;;;;;;;;;;12.33;67.67;98854.53;4394624;32;32882;-84
2023/04/25 05:43:08;;;;;;;;;;;;;;;12.76;66.52;98851.66;4393680;32;34268;-84
2023/04/25 05:45:37;;;;;;;;;;;;;;;12.73;66.65;98847.44;4421879;32;32632;-84
2023/04/25 05:48:08;;;;;;;;;;;;;;;12.52;67.43;98852.34;4408623;32;32574;-84
2023/04/25 05:50:38;;;;;;;;;;;;;;;12.82;65.63;98851.25;4410005;32;33045;-84
2023/04/25 05:53:10;;;;;;;;;;;;;;;12.25;68.17;98852.41;4397536;32;34359;-84
2023/04/25 05:55:39;;;;;;;;;;;;;;;12.73;66.47;98847.44;4397237;32;33103;-84
2023/04/25 05:58:10;;;;;;;;;;;;;;;12.38;67.96;98854.22;4397270;32;33526;-85
2023/04/25 06:00:38;;;;;;;;;;;;;;;12.36;68.15;98846.38;4409843;32;34352;-84
2023/04/25 06:03:09;;;;;;;;;;;;;;;12.51;67.76;98855.94;4397193;32;33059;-84
2023/04/25 06:05:44;;;;;;;;;;;;;;;12.66;67.34;98855.88;4408777;32;32283;-84
2023/04/25 06:08:12;;;;;;;;;;;;;;;12.71;67.03;98853.75;4395278;32;34178;-84
2023/04/25 06:10:40;;;;;;;;;;;;;;;12.41;68.36;98846.94;4408600;32;33261;-86
2023/04/25 06:13:09;;;;;;;;;;;;;;;12.68;67.10;98854.00;4409363;32;34999;-85
2023/04/25 06:15:39;;;;;;;;;;;;;;;12.68;67.48;98849.53;4406414;32;32824;-83
2023/04/25 06:18:08;;;;;;;;;;;;;;;12.96;66.31;98859.13;4407345;32;33254;-83
2023/04/25 06:20:36;;;;;;;;;;;;;;;12.50;67.58;98856.91;4405609;32;34681;-83
2023/04/25 06:23:07;;;;;;;;;;;;;;;12.37;68.68;98850.72;4405798;32;35002;-86
2023/04/25 06:25:35;;;;;;;;;;;;;;;12.62;67.09;98851.72;4367353;32;33349;-83
2023/04/25 06:28:02;;;;;;;;;;;;;;;12.77;66.06;98853.34;4412271;32;33797;-83
2023/04/25 06:30:32;;;;;;;;;;;;;;;12.80;66.58;98847.84;4388076;32;33242;-83
2023/04/25 06:33:03;;;;;;;;;;;;;;;12.89;65.23;98854.31;4403551;32;33356;-83
2023/04/25 06:35:36;;;;;;;;;;;;;;;12.91;64.02;98850.59;4401928;32;32972;-83
2023/04/25 06:38:06;;;;;;;;;;;;;;;12.67;64.87;98852.28;4402160;32;33808;-83
2023/04/25 06:40:40;;;;;;;;;;;;;;;12.88;64.66;98850.84;4413385;32;34919;-82
2023/04/25 06:43:10;;;;;;;;;;;;;;;13.05;64.07;98847.88;4401403;32;34875;-83
2023/04/25 06:45:42;;;;;;;;;;;;;;;13.15;64.60;98849.87;4412097;32;32207;-83
2023/04/25 06:48:14;;;;;;;;;;;;;;;13.26;63.22;98853.53;4399215;32;34893;-83
2023/04/25 06:50:48;;;;;;;;;;;;;;;13.26;63.02;98853.53;4409743;32;35391;-84
2023/04/25 06:53:19;;;;;;;;;;;;;;;13.35;62.30;98849.38;4388746;32;33524;-83
2023/04/25 06:55:50;;;;;;;;;;;;;;;13.22;62.85;98853.84;4403996;32;34029;-82
2023/04/25 06:58:19;;;;;;;;;;;;;;;13.27;63.58;98849.91;4403045;32;34702;-82
2023/04/25 07:00:48;;;;;;;;;;;;;;;13.43;62.40;98852.31;4389130;32;32956;-83
2023/04/25 07:03:21;;;;;;;;;;;;;;;13.31;63.99;98861.16;4402666;32;32985;-83
2023/04/25 07:05:53;;;;;;;;;;;;;;;13.59;62.39;98862.72;4401940;32;32323;-83
2023/04/25 07:08:21;;;;;;;;;;;;;;;13.53;63.72;98858.69;4402835;32;33832;-83
2023/04/25 07:10:51;;;;;;;;;;;;;;;13.94;61.70;98862.81;4403249;32;33407;-82
2023/04/25 07:13:22;;;;;;;;;;;;;;;13.73;63.10;98851.13;4411078;32;32738;-83
2023/04/25 07:15:51;;;;;;;;;;;;;;;14.10;62.24;98844.00;4400107;32;33789;-83
2023/04/25 07:18:21;;;;;;;;;;;;;;;14.33;61.86;98852.91;4389437;32;33682;-83
2023/04/25 07:20:55;;;;;;;;;;;;;;;14.24;62.33;98853.56;4399168;32;32369;-81
2023/04/25 07:23:23;;;;;;;;;;;;;;;14.40;61.03;98859.47;4378554;32;33024;-82
2023/04/25 07:25:52;;;;;;;;;;;;;;;14.58;59.54;98858.13;4392696;32;33282;-83
2023/04/25 07:28:21;;;;;;;;;;;;;;;14.44;59.03;98855.63;4389746;32;33339;-84
2023/04/25 07:30:49;;;;;;;;;;;;;;;14.37;58.74;98856.19;4389190;32;33443;-84
2023/04/25 07:33:24;;;;;;;;;;;;;;;14.15;60.65;98862.22;4403196;32;34548;-84
2023/04/25 07:35:53;;;;;;;;;;;;;;;14.54;58.52;98864.63;4405545;32;32379;-84
2023/04/25 07:38:21;;;;;;;;;;;;;;;14.29;59.58;98859.38;4391495;32;32919;-84
2023/04/25 07:40:51;;;;;;;;;;;;;;;14.41;59.38;98866.47;4390381;32;34922;-85
2023/04/25 07:43:22;;;;;;;;;;;;;;;14.68;57.09;98862.75;4402426;32;33762;-85
2023/04/25 07:45:51;;;;;;;;;;;;;;;14.57;56.49;98866.19;4382524;32;32493;-85
2023/04/25 07:48:19;;;;;;;;;;;;;;;14.62;56.78;98874.66;4395347;32;30954;-85
2023/04/25 07:50:49;;;;;;;;;;;;;;;14.27;59.08;98863.97;4409400;32;34047;-85
2023/04/25 07:53:21;;;;;;;;;;;;;;;14.73;56.87;98865.91;4395462;32;33037;-85
2023/04/25 07:55:50;;;;;;;;;;;;;;;14.78;56.08;98856.63;4408544;32;33067;-85
2023/04/25 07:58:21;;;;;;;;;;;;;;;14.74;56.76;98867.59;4409228;32;34612;-85
2023/04/25 08:00:54;;;;;;;;;;;;;;;14.23;58.70;98860.69;4410451;32;33318;-86
2023/04/25 08:06:07;;;;;;;;;;;;;;;15.13;56.32;98863.69;4421459;32;34012;-85
2023/04/25 08:08:37;;;;;;;;;;;;;;;14.79;56.91;98860.97;4396689;32;33184;-85
2023/04/25 08:11:06;;;;;;;;;;;;;;;14.98;56.74;98860.41;4409085;32;33787;-85
2023/04/25 08:13:34;;;;;;;;;;;;;;;15.20;55.17;98859.59;4396368;32;32768;-85
2023/04/25 08:16:04;;;;;;;;;;;;;;;15.37;55.65;98859.13;4395166;32;32503;-85
2023/04/25 08:18:33;;;;;;;;;;;;;;;15.53;54.97;98861.44;4408891;32;33323;-85
2023/04/25 08:21:01;;;;;;;;;;;;;;;15.50;54.39;98856.34;4408976;32;33970;-85
2023/04/25 08:23:30;;;;;;;;;;;;;;;15.08;56.32;98866.69;4396091;32;34015;-85
2023/04/25 08:25:59;;;;;;;;;;;;;;;15.32;54.14;98860.44;4407993;32;33403;-85
2023/04/25 08:28:32;;;;;;;;;;;;;;;15.62;54.59;98866.03;4396547;32;33025;-85
2023/04/25 08:31:01;;;;;;;;;;;;;;;15.24;55.62;98876.16;4422821;32;35526;-85
2023/04/25 08:33:33;;;;;;;;;;;;;;;15.18;55.32;98871.31;4395020;32;33275;-86
2023/04/25 08:36:02;;;;;;;;;;;;;;;15.25;55.68;98876.03;4407786;32;32413;-85
2023/04/25 08:38:38;;;;;;;;;;;;;;;15.34;55.02;98874.50;4408243;32;34193;-85
2023/04/25 08:41:08;;;;;;;;;;;;;;;15.69;53.08;98874.41;4391106;32;34040;-85
2023/04/25 08:43:42;;;;;;;;;;;;;;;15.51;54.20;98879.31;4396326;32;33013;-85
2023/04/25 08:46:10;;;;;;;;;;;;;;;15.59;54.91;98879.56;4394785;32;31852;-85
2023/04/25 08:48:39;;;;;;;;;;;;;;;15.39;53.51;98879.44;4395370;32;33223;-85
2023/04/25 08:51:08;;;;;;;;;;;;;;;15.44;53.38;98879.94;4407292;32;32813;-85
2023/04/25 08:53:42;;;;;;;;;;;;;;;15.08;54.88;98898.59;4396417;32;33517;-85
2023/04/25 08:56:12;;;;;;;;;;;;;;;14.87;54.80;98888.78;4407576;32;33273;-85
2023/04/25 08:58:41;;;;;;;;;;;;;;;14.95;54.84;98900.50;4407820;32;34521;-86
2023/04/25 09:01:13;;;;;;;;;;;;;;;14.84;55.62;98898.66;4409350;32;33029;-86
2023/04/25 09:03:42;;;;;;;;;;;;;;;14.52;57.30;98906.38;4404984;32;33532;-86
2023/04/25 09:06:13;;;;;;;;;;;;;;;14.96;55.41;98899.56;4402525;32;33111;-85
2023/04/25 09:08:43;;;;;;;;;;;;;;;15.24;54.27;98902.75;4380291;32;33362;-86
2023/04/25 09:11:14;;;;;;;;;;;;;;;15.14;54.79;98897.28;4404703;32;34835;-85
2023/04/25 09:13:43;;;;;;;;;;;;;;;15.45;53.63;98900.25;4403662;32;32474;-86
2023/04/25 09:16:17;;;;;;;;;;;;;;;15.05;55.90;98898.84;4402681;32;33161;-85
2023/04/25 09:18:53;;;;;;;;;;;;;;;15.26;54.60;98900.81;4403046;32;33978;-86
2023/04/25 09:21:22;;;;;;;;;;;;;;;15.44;54.06;98893.25;4402254;32;34310;-85
2023/04/25 09:23:52;;;;;;;;;;;;;;;15.36;53.44;98885.84;4390960;32;36201;-86
2023/04/25 09:26:21;;;;;;;;;;;;;;;15.22;54.99;98894.03;4378289;32;32106;-86
2023/04/25 09:28:50;;;;;;;;;;;;;;;14.93;55.06;98889.16;4401965;32;34227;-85
2023/04/25 09:31:24;;;;;;;;;;;;;;;15.81;52.63;98880.56;4389751;32;33215;-85
2023/04/25 09:34:02;;;;;;;;;;;;;;;15.59;52.77;98887.56;4390938;32;34212;-86
2023/04/25 09:36:34;;;;;;;;;;;;;;;15.37;54.22;98877.72;4391546;32;32262;-86
2023/04/25 09:39:03;;;;;;;;;;;;;;;15.84;52.83;98880.31;4380254;32;32600;-86
2023/04/25 09:41:39;;;;;;;;;;;;;;;16.06;51.79;98879.44;4404145;32;35542;-85
2023/04/25 09:44:06;;;;;;;;;;;;;;;16.28;51.60;98868.72;4403513;32;35201;-85
2023/04/25 09:46:41;;;;;;;;;;;;;;;16.44;50.58;98870.97;4391527;32;33007;-86
2023/04/25 09:49:21;;;;;;;;;;;;;;;16.43;50.52;98871.13;4401736;32;33659;-86
2023/04/25 09:51:57;;;;;;;;;;;;;;;16.40;50.47;98880.19;4404288;32;34435;-86
2023/04/25 09:54:27;;;;;;;;;;;;;;;16.31;51.04;98888.94;4380287;32;34081;-86
2023/04/25 09:56:56;;;;;;;;;;;;;;;16.12;51.70;98878.94;4404354;32;33219;-86
2023/04/25 09:59:24;;;;;;;;;;;;;;;16.48;49.87;98884.91;4404098;32;33654;-85
2023/04/25 10:01:55;;;;;;;;;;;;;;;16.34;51.65;98878.03;4404533;32;34384;-86
2023/04/25 10:04:25;;;;;;;;;;;;;;;16.83;49.28;98880.16;4390319;32;33914;-86
2023/04/25 10:06:55;;;;;;;;;;;;;;;16.80;49.97;98888.41;4404543;32;32203;-85
2023/04/25 10:09:29;;;;;;;;;;;;;;;16.82;49.06;98875.81;4397100;32;32942;-85
2023/04/25 10:12:01;;;;;;;;;;;;;;;16.99;48.39;98879.69;4402633;32;34044;-85
2023/04/25 10:14:32;;;;;;;;;;;;;;;16.89;48.02;98878.78;4392225;32;34231;-85
2023/04/25 10:17:01;;;;;;;;;;;;;;;16.52;48.46;98880.97;4404408;32;34216;-83
2023/04/25 10:19:30;;;;;;;;;;;;;;;16.32;49.39;98883.47;4405469;32;34246;-84
2023/04/25 10:22:02;;;;;;;;;;;;;;;16.32;47.61;98890.63;4406023;32;33544;-83
2023/04/25 10:24:32;;;;;;;;;;;;;;;16.46;47.38;98870.84;4406565;32;33051;-84
2023/04/25 10:26:59;;;;;;;;;;;;;;;16.34;47.92;98883.38;4406636;32;31828;-83
2023/04/25 10:29:29;;;;;;;;;;;;;;;16.41;47.85;98879.22;4405354;32;33743;-84
2023/04/25 10:32:00;;;;;;;;;;;;;;;16.54;48.53;98874.56;4405482;32;35000;-84
2023/04/25 10:34:40;;;;;;;;;;;;;;;16.49;48.68;98881.25;4406944;32;34113;-84
2023/04/25 10:37:10;;;;;;;;;;;;;;;16.45;47.91;98870.00;4406609;32;33474;-83
2023/04/25 10:39:44;;;;;;;;;;;;;;;16.62;48.47;98882.78;4406876;32;34483;-85
2023/04/25 10:42:13;;;;;;;;;;;;;;;16.54;47.66;98882.56;4406151;32;33850;-86
2023/04/25 10:44:47;;;;;;;;;;;;;;;16.86;46.22;98887.91;4406093;32;33135;-85
2023/04/25 10:47:17;;;;;;;;;;;;;;;17.12;45.11;98874.19;4392499;32;33166;-85
2023/04/25 10:49:45;;;;;;;;;;;;;;;16.58;48.31;98880.50;4405654;32;34764;-85
2023/04/25 10:52:28;;;;;;;;;;;;;;;16.95;47.58;98883.63;4393786;32;33871;-85
2023/04/25 10:54:57;;;;;;;;;;;;;;;17.60;44.31;98881.59;4405709;32;34406;-85
2023/04/25 10:57:37;;;;;;;;;;;;;;;17.24;45.51;98882.97;4387907;32;32429;-86
2023/04/25 11:00:12;;;;;;;;;;;;;;;17.34;45.71;98889.19;4406551;32;34784;-86
2023/04/25 11:02:42;;;;;;;;;;;;;;;18.00;42.29;98881.66;4412208;32;34155;-85
2023/04/25 11:05:15;;;;;;;;;;;;;;;18.24;43.04;98880.44;4407488;32;34401;-85
2023/04/25 11:07:54;;;;;;;;;;;;;;;18.60;40.08;98878.91;4405832;32;33202;-84
2023/04/25 11:10:42;;;;;;;;;;;;;;;18.84;38.83;98876.69;4396272;32;33856;-84
2023/04/25 11:13:11;;;;;;;;;;;;;;;19.19;39.08;98876.09;4404321;32;34243;-85
2023/04/25 11:15:40;;;;;;;;;;;;;;;18.90;39.66;98872.63;4404116;32;34077;-84
2023/04/25 11:18:11;;;;;;;;;;;;;;;18.65;39.82;98884.69;4406518;32;33212;-84
2023/04/25 11:20:43;;;;;;;;;;;;;;;19.08;38.74;98886.94;4401911;32;34731;-85
2023/04/25 11:23:12;;;;;;;;;;;;;;;19.01;36.93;98888.50;4402008;32;35195;-85
2023/04/25 11:25:48;;;;;;;;;;;;;;;18.69;37.92;98883.44;4405062;32;34365;-85
2023/04/25 11:28:22;;;;;;;;;;;;;;;18.71;38.57;98883.31;4417875;32;32981;-85
2023/04/25 11:30:52;;;;;;;;;;;;;;;18.74;38.01;98896.41;4404044;32;33849;-84
2023/04/25 11:33:24;;;;;;;;;;;;;;;17.80;38.66;98906.56;4393568;32;34212;-86
2023/04/25 11:35:56;;;;;;;;;;;;;;;18.11;37.84;98900.22;4392255;32;33551;-86
2023/04/25 11:38:28;;;;;;;;;;;;;;;17.81;39.76;98919.81;4405928;32;33833;-85
2023/04/25 11:40:58;;;;;;;;;;;;;;;18.33;37.04;98909.00;4404845;32;34608;-84
2023/04/25 11:43:26;;;;;;;;;;;;;;;18.23;38.36;98921.47;4406105;32;33954;-84
2023/04/25 11:45:55;;;;;;;;;;;;;;;18.26;38.15;98922.06;4406536;32;33524;-85
2023/04/25 11:48:24;;;;;;;;;;;;;;;17.94;38.89;98926.72;4405965;32;33380;-84
2023/04/25 11:50:53;;;;;;;;;;;;;;;17.84;39.54;98932.03;4406279;32;33826;-85
2023/04/25 11:53:24;;;;;;;;;;;;;;;18.01;39.36;98926.06;4405919;32;33113;-85
2023/04/25 11:55:53;;;;;;;;;;;;;;;18.33;39.92;98925.87;4405068;32;34240;-85
2023/04/25 11:58:24;;;;;;;;;;;;;;;18.16;39.21;98927.37;4403393;32;32394;-85
2023/04/25 12:00:52;;;;;;;;;;;;;;;18.10;41.15;98935.09;4380474;32;33888;-85
2023/04/25 12:03:25;;;;;;;;;;;;;;;18.35;38.56;98928.41;4380315;32;33451;-84
2023/04/25 12:06:01;;;;;;;;;;;;;;;18.53;39.56;98917.91;4387476;32;33496;-85
2023/04/25 12:08:31;;;;;;;;;;;;;;;18.30;39.69;98931.50;4393242;32;33356;-84
2023/04/25 12:10:59;;;;;;;;;;;;;;;18.55;38.22;98927.44;4390006;32;32432;-85
2023/04/25 12:13:28;;;;;;;;;;;;;;;18.55;36.37;98923.94;4403011;32;33672;-85
2023/04/25 12:15:56;;;;;;;;;;;;;;;17.92;39.42;98930.38;4403108;32;34352;-86
2023/04/25 12:18:27;;;;;;;;;;;;;;;18.55;38.09;98927.44;4389722;32;32683;-85
2023/04/25 12:23:33;;;;;;;;;;;;;;;18.27;35.31;98914.88;4404005;32;33934;-85
2023/04/25 12:26:03;;;;;;;;;;;;;;;17.92;38.66;98916.19;4398054;32;34202;-86
2023/04/25 12:28:33;;;;;;;;;;;;;;;18.31;35.58;98917.13;4405102;32;31033;-86
2023/04/25 12:31:03;;;;;;;;;;;;;;;18.76;36.69;98910.50;4390428;32;33046;-87
2023/04/25 12:33:32;;;;;;;;;;;;;;;18.23;38.31;98918.81;4390970;32;32862;-86
2023/04/25 12:36:10;;;;;;;;;;;;;;;18.67;35.89;98896.94;4392457;32;34236;-87
2023/04/25 12:38:45;;;;;;;;;;;;;;;18.56;37.34;98899.75;4405098;32;33592;-86
2023/04/25 12:41:14;;;;;;;;;;;;;;;18.53;38.35;98899.19;4399639;32;34731;-87
2023/04/25 12:43:54;;;;;;;;;;;;;;;18.68;38.68;98892.44;4387774;32;33621;-87
2023/04/25 12:46:29;;;;;;;;;;;;;;;18.66;37.42;98889.91;4392717;32;33307;-86
2023/04/25 12:49:01;;;;;;;;;;;;;;;18.76;37.49;98883.75;4391688;32;33588;-86
2023/04/25 12:51:52;;;;;;;;;;;;;;;18.87;37.98;98879.09;4393195;32;33478;-86
2023/04/25 12:54:22;;;;;;;;;;;;;;;19.14;35.96;98874.84;4417964;32;33674;-86
2023/04/25 12:56:50;;;;;;;;;;;;;;;19.26;37.38;98880.84;4401539;32;33560;-86
2023/04/25 12:59:20;;;;;;;;;;;;;;;19.17;35.77;98875.38;4403301;32;33115;-86
2023/04/25 13:01:48;;;;;;;;;;;;;;;19.78;34.89;98876.75;4403216;32;33759;-86
2023/04/25 13:04:20;;;;;;;;;;;;;;;19.89;33.37;98873.03;4402314;32;34233;-86
2023/04/25 13:09:33;;;;;;;;;;;;;;;19.26;34.21;98880.84;4390794;32;33633;-86
2023/04/25 13:12:04;;;;;;;;;;;;;;;18.65;36.58;98876.66;4403029;32;33554;-86